Terminal Aerodrome Forecast
Issued by NWS Charleston, WV

Current Version | Previous Version | Text Only | Print | Product List | Glossary On
Versions: 1 2 3 4 5 6 7 8 9 10 11 12 13 14 15 16 17 18 19 20 21 22 23 24 25 26 27 28
000
FTUS41 KRLX 271744
TAFCRW
TAF
KCRW 271744Z 2718/2818 25005KT P6SM VCTS SCT045CB SCT070
     FM280100 VRB02KT P6SM SCT050 SCT070
     FM280500 00000KT 6SM BR BKN070
     FM280800 00000KT 3SM BR BKN060
     FM281300 00000KT P6SM VCTS BKN050CB
     FM281500 00000KT 5SM SHRA BR VCTS SCT020 OVC035CB=

USA.gov is the U.S. government's official web portal to all federal, state and local government web resources and services.